sensor_id;sensor_type;location;lat;lon;timestamp;temperature;humidity
5415;DHT22;2730;51.512;7.504;2022-09-03T05:01:06;13.20;99.90
5415;DHT22;2730;51.512;7.504;2022-09-03T05:03:33;13.20;99.90
5415;DHT22;2730;51.512;7.504;2022-09-03T05:06:02;13.20;99.90
5415;DHT22;2730;51.512;7.504;2022-09-03T05:08:31;13.20;99.90
5415;DHT22;2730;51.512;7.504;2022-09-03T05:11:01;13.20;99.90
5415;DHT22;2730;51.512;7.504;2022-09-03T05:13:28;13.10;99.90
5415;DHT22;2730;51.512;7.504;2022-09-03T05:16:00;13.20;99.90
5415;DHT22;2730;51.512;7.504;2022-09-03T05:18:27;13.20;99.90
5415;DHT22;2730;51.512;7.504;2022-09-03T05:20:58;13.30;99.90
5415;DHT22;2730;51.512;7.504;2022-09-03T05:23:25;13.30;99.90
5415;DHT22;2730;51.512;7.504;2022-09-03T05:25:55;13.30;99.90
5415;DHT22;2730;51.512;7.504;2022-09-03T05:28:24;13.30;99.90
5415;DHT22;2730;51.512;7.504;2022-09-03T05:30:59;13.40;99.90
5415;DHT22;2730;51.512;7.504;2022-09-03T05:33:26;13.40;99.90
5415;DHT22;2730;51.512;7.504;2022-09-03T05:35:53;13.50;99.90
5415;DHT22;2730;51.512;7.504;2022-09-03T05:38:20;13.50;99.90
5415;DHT22;2730;51.512;7.504;2022-09-03T05:40:47;13.60;99.90
5415;DHT22;2730;51.512;7.504;2022-09-03T05:43:14;13.50;99.90
5415;DHT22;2730;51.512;7.504;2022-09-03T05:45:42;13.50;99.90
5415;DHT22;2730;51.512;7.504;2022-09-03T05:48:10;13.60;99.90
5415;DHT22;2730;51.512;7.504;2022-09-03T05:50:37;13.70;99.90
5415;DHT22;2730;51.512;7.504;2022-09-03T05:53:04;13.70;99.90
5415;DHT22;2730;51.512;7.504;2022-09-03T05:55:31;13.80;99.90
5415;DHT22;2730;51.512;7.504;2022-09-03T05:57:58;13.80;99.90
5415;DHT22;2730;51.512;7.504;2022-09-03T06:00:25;13.80;99.90
5415;DHT22;2730;51.512;7.504;2022-09-03T06:02:52;13.90;99.90
5415;DHT22;2730;51.512;7.504;2022-09-03T06:05:21;13.90;99.90
5415;DHT22;2730;51.512;7.504;2022-09-03T06:07:48;14.00;99.90
5415;DHT22;2730;51.512;7.504;2022-09-03T06:10:15;14.00;99.90
5415;DHT22;2730;51.512;7.504;2022-09-03T06:12:42;14.10;99.90
5415;DHT22;2730;51.512;7.504;2022-09-03T06:15:14;14.10;99.90
5415;DHT22;2730;51.512;7.504;2022-09-03T06:17:41;14.10;99.90
5415;DHT22;2730;51.512;7.504;2022-09-03T06:20:09;14.20;99.90
5415;DHT22;2730;51.512;7.504;2022-09-03T06:22:38;14.30;99.90
5415;DHT22;2730;51.512;7.504;2022-09-03T06:25:05;14.50;99.90
5415;DHT22;2730;51.512;7.504;2022-09-03T06:27:35;14.60;99.90
5415;DHT22;2730;51.512;7.504;2022-09-03T06:30:06;14.60;99.90
5415;DHT22;2730;51.512;7.504;2022-09-03T06:32:42;14.70;99.90
5415;DHT22;2730;51.512;7.504;2022-09-03T06:35:08;14.80;99.90
5415;DHT22;2730;51.512;7.504;2022-09-03T06:37:40;14.90;99.90
5415;DHT22;2730;51.512;7.504;2022-09-03T06:40:08;15.00;99.90
5415;DHT22;2730;51.512;7.504;2022-09-03T06:42:37;15.10;99.90
5415;DHT22;2730;51.512;7.504;2022-09-03T06:45:06;15.40;99.90
5415;DHT22;2730;51.512;7.504;2022-09-03T06:47:33;15.60;99.90
5415;DHT22;2730;51.512;7.504;2022-09-03T06:50:00;16.20;99.90
5415;DHT22;2730;51.512;7.504;2022-09-03T06:52:27;17.70;99.90
5415;DHT22;2730;51.512;7.504;2022-09-03T06:54:56;19.20;99.90
5415;DHT22;2730;51.512;7.504;2022-09-03T06:57:22;20.70;99.90
5415;DHT22;2730;51.512;7.504;2022-09-03T06:59:49;21.50;99.50
5415;DHT22;2730;51.512;7.504;2022-09-03T07:02:17;22.40;98.70
5415;DHT22;2730;51.512;7.504;2022-09-03T07:04:47;23.40;95.80
5415;DHT22;2730;51.512;7.504;2022-09-03T07:07:14;23.70;95.60
5415;DHT22;2730;51.512;7.504;2022-09-03T07:09:41;24.20;94.20
5415;DHT22;2730;51.512;7.504;2022-09-03T07:12:17;24.30;93.80
5415;DHT22;2730;51.512;7.504;2022-09-03T07:14:46;24.70;93.50
5415;DHT22;2730;51.512;7.504;2022-09-03T07:17:13;24.80;92.90
5415;DHT22;2730;51.512;7.504;2022-09-03T07:19:39;25.40;92.10
5415;DHT22;2730;51.512;7.504;2022-09-03T07:22:06;25.50;91.90
5415;DHT22;2730;51.512;7.504;2022-09-03T07:24:36;26.10;91.20
5415;DHT22;2730;51.512;7.504;2022-09-03T07:27:03;26.50;90.20
5415;DHT22;2730;51.512;7.504;2022-09-03T07:29:32;26.00;89.20
5415;DHT22;2730;51.512;7.504;2022-09-03T07:31:59;25.90;90.10
5415;DHT22;2730;51.512;7.504;2022-09-03T07:34:27;25.90;90.30
5415;DHT22;2730;51.512;7.504;2022-09-03T07:36:54;26.60;89.70
5415;DHT22;2730;51.512;7.504;2022-09-03T07:39:21;26.40;88.80
5415;DHT22;2730;51.512;7.504;2022-09-03T07:41:48;26.70;88.20
5415;DHT22;2730;51.512;7.504;2022-09-03T07:44:16;27.20;87.30
5415;DHT22;2730;51.512;7.504;2022-09-03T07:46:45;27.30;85.30
5415;DHT22;2730;51.512;7.504;2022-09-03T07:49:14;27.20;85.20
5415;DHT22;2730;51.512;7.504;2022-09-03T07:51:41;27.20;85.10
5415;DHT22;2730;51.512;7.504;2022-09-03T07:54:10;26.90;86.00
5415;DHT22;2730;51.512;7.504;2022-09-03T07:56:38;27.20;84.60
5415;DHT22;2730;51.512;7.504;2022-09-03T07:59:06;27.30;83.90
5415;DHT22;2730;51.512;7.504;2022-09-03T08:01:33;27.10;84.60
5415;DHT22;2730;51.512;7.504;2022-09-03T08:04:02;26.80;84.70
5415;DHT22;2730;51.512;7.504;2022-09-03T08:06:32;26.60;83.70
5415;DHT22;2730;51.512;7.504;2022-09-03T08:09:03;25.40;86.10
5415;DHT22;2730;51.512;7.504;2022-09-03T08:11:31;25.40;86.80
5415;DHT22;2730;51.512;7.504;2022-09-03T08:14:00;25.50;87.20
5415;DHT22;2730;51.512;7.504;2022-09-03T08:16:33;25.90;86.60
5415;DHT22;2730;51.512;7.504;2022-09-03T08:19:01;26.00;87.10
5415;DHT22;2730;51.512;7.504;2022-09-03T08:21:28;26.30;86.10
5415;DHT22;2730;51.512;7.504;2022-09-03T08:23:56;26.60;84.70
5415;DHT22;2730;51.512;7.504;2022-09-03T08:26:28;26.80;85.50
5415;DHT22;2730;51.512;7.504;2022-09-03T08:28:56;27.40;84.30
5415;DHT22;2730;51.512;7.504;2022-09-03T08:31:23;28.20;84.10
5415;DHT22;2730;51.512;7.504;2022-09-03T08:33:53;27.70;84.20
5415;DHT22;2730;51.512;7.504;2022-09-03T08:36:23;28.20;85.30
5415;DHT22;2730;51.512;7.504;2022-09-03T08:38:51;28.70;81.60
5415;DHT22;2730;51.512;7.504;2022-09-03T08:41:22;27.50;83.10
5415;DHT22;2730;51.512;7.504;2022-09-03T08:44:08;26.50;84.30
5415;DHT22;2730;51.512;7.504;2022-09-03T08:46:46;25.40;86.00
5415;DHT22;2730;51.512;7.504;2022-09-03T08:49:19;24.70;87.30
5415;DHT22;2730;51.512;7.504;2022-09-03T08:51:49;23.80;89.60
5415;DHT22;2730;51.512;7.504;2022-09-03T08:54:20;23.90;90.70
5415;DHT22;2730;51.512;7.504;2022-09-03T08:56:47;24.50;90.00
5415;DHT22;2730;51.512;7.504;2022-09-03T08:59:15;24.60;89.40
5415;DHT22;2730;51.512;7.504;2022-09-03T09:01:48;24.50;89.60
5415;DHT22;2730;51.512;7.504;2022-09-03T09:04:24;24.50;90.30
5415;DHT22;2730;51.512;7.504;2022-09-03T09:06:59;25.40;90.00
5415;DHT22;2730;51.512;7.504;2022-09-03T09:09:32;26.80;84.50
5415;DHT22;2730;51.512;7.504;2022-09-03T09:12:09;27.20;86.00
5415;DHT22;2730;51.512;7.504;2022-09-03T09:14:44;27.00;84.20
5415;DHT22;2730;51.512;7.504;2022-09-03T09:17:36;26.10;83.10
5415;DHT22;2730;51.512;7.504;2022-09-03T09:20:14;26.60;83.40
5415;DHT22;2730;51.512;7.504;2022-09-03T09:22:46;27.10;82.30
5415;DHT22;2730;51.512;7.504;2022-09-03T09:25:18;28.10;81.90
5415;DHT22;2730;51.512;7.504;2022-09-03T09:27:49;29.10;79.00
5415;DHT22;2730;51.512;7.504;2022-09-03T09:30:18;29.20;78.30
5415;DHT22;2730;51.512;7.504;2022-09-03T09:32:45;29.80;78.20
5415;DHT22;2730;51.512;7.504;2022-09-03T09:35:13;30.60;77.20
5415;DHT22;2730;51.512;7.504;2022-09-03T09:37:52;30.80;74.80
5415;DHT22;2730;51.512;7.504;2022-09-03T09:40:24;30.50;75.00
5415;DHT22;2730;51.512;7.504;2022-09-03T09:43:03;30.60;74.80
5415;DHT22;2730;51.512;7.504;2022-09-03T09:45:30;31.10;73.10
5415;DHT22;2730;51.512;7.504;2022-09-03T09:47:59;31.00;73.20
5415;DHT22;2730;51.512;7.504;2022-09-03T09:50:27;30.80;72.40
5415;DHT22;2730;51.512;7.504;2022-09-03T09:53:03;30.40;73.70
5415;DHT22;2730;51.512;7.504;2022-09-03T09:55:52;30.40;74.10
5415;DHT22;2730;51.512;7.504;2022-09-03T09:58:20;30.60;73.40
5415;DHT22;2730;51.512;7.504;2022-09-03T10:01:00;30.50;74.20
5415;DHT22;2730;51.512;7.504;2022-09-03T10:03:33;30.20;72.70
5415;DHT22;2730;51.512;7.504;2022-09-03T10:06:03;30.50;72.60
5415;DHT22;2730;51.512;7.504;2022-09-03T10:08:54;30.80;72.00
5415;DHT22;2730;51.512;7.504;2022-09-03T10:11:30;30.60;72.60
5415;DHT22;2730;51.512;7.504;2022-09-03T10:13:59;30.10;73.50
5415;DHT22;2730;51.512;7.504;2022-09-03T10:16:29;30.00;73.50
5415;DHT22;2730;51.512;7.504;2022-09-03T10:19:05;29.50;73.60
5415;DHT22;2730;51.512;7.504;2022-09-03T10:21:42;29.40;74.50
5415;DHT22;2730;51.512;7.504;2022-09-03T10:24:28;29.50;75.30
5415;DHT22;2730;51.512;7.504;2022-09-03T10:26:57;29.80;73.70
5415;DHT22;2730;51.512;7.504;2022-09-03T10:29:24;29.70;73.20
5415;DHT22;2730;51.512;7.504;2022-09-03T10:32:18;30.10;72.40
5415;DHT22;2730;51.512;7.504;2022-09-03T10:34:57;30.20;72.50
5415;DHT22;2730;51.512;7.504;2022-09-03T10:37:34;30.80;73.80
5415;DHT22;2730;51.512;7.504;2022-09-03T10:40:22;30.80;72.20
5415;DHT22;2730;51.512;7.504;2022-09-03T10:45:51;31.10;72.10
5415;DHT22;2730;51.512;7.504;2022-09-03T10:48:49;30.70;71.80
5415;DHT22;2730;51.512;7.504;2022-09-03T10:51:22;30.00;72.70
5415;DHT22;2730;51.512;7.504;2022-09-03T10:54:09;29.90;71.90
5415;DHT22;2730;51.512;7.504;2022-09-03T10:56:48;29.90;72.80
5415;DHT22;2730;51.512;7.504;2022-09-03T10:59:32;30.10;71.80
5415;DHT22;2730;51.512;7.504;2022-09-03T11:02:19;30.20;72.50
5415;DHT22;2730;51.512;7.504;2022-09-03T11:04:56;29.30;73.30
5415;DHT22;2730;51.512;7.504;2022-09-03T11:07:31;28.90;73.80
5415;DHT22;2730;51.512;7.504;2022-09-03T11:10:11;28.30;74.40
5415;DHT22;2730;51.512;7.504;2022-09-03T11:12:44;28.10;75.00
5415;DHT22;2730;51.512;7.504;2022-09-03T11:15:21;27.70;75.50
5415;DHT22;2730;51.512;7.504;2022-09-03T11:17:53;27.70;76.50
5415;DHT22;2730;51.512;7.504;2022-09-03T11:20:23;27.90;77.60
5415;DHT22;2730;51.512;7.504;2022-09-03T11:22:53;27.60;78.30
5415;DHT22;2730;51.512;7.504;2022-09-03T11:25:23;27.20;78.30
5415;DHT22;2730;51.512;7.504;2022-09-03T11:28:06;27.00;79.30
5415;DHT22;2730;51.512;7.504;2022-09-03T11:30:39;27.20;79.70
5415;DHT22;2730;51.512;7.504;2022-09-03T11:33:18;27.10;79.10
5415;DHT22;2730;51.512;7.504;2022-09-03T11:35:55;27.20;80.20
5415;DHT22;2730;51.512;7.504;2022-09-03T11:38:22;27.20;80.10
5415;DHT22;2730;51.512;7.504;2022-09-03T11:41:02;27.30;80.10
5415;DHT22;2730;51.512;7.504;2022-09-03T11:43:32;27.20;80.40
5415;DHT22;2730;51.512;7.504;2022-09-03T11:46:08;27.30;80.30
5415;DHT22;2730;51.512;7.504;2022-09-03T11:48:40;27.10;80.20
5415;DHT22;2730;51.512;7.504;2022-09-03T11:51:20;27.10;80.60
5415;DHT22;2730;51.512;7.504;2022-09-03T11:53:55;27.20;81.30
5415;DHT22;2730;51.512;7.504;2022-09-03T11:56:22;27.30;82.40
5415;DHT22;2730;51.512;7.504;2022-09-03T11:59:05;27.30;81.40
5415;DHT22;2730;51.512;7.504;2022-09-03T12:01:43;27.40;81.20
5415;DHT22;2730;51.512;7.504;2022-09-03T12:04:14;27.20;80.60
5415;DHT22;2730;51.512;7.504;2022-09-03T12:06:54;27.10;81.70
5415;DHT22;2730;51.512;7.504;2022-09-03T12:09:36;27.10;80.60
5415;DHT22;2730;51.512;7.504;2022-09-03T12:12:13;27.10;81.20
5415;DHT22;2730;51.512;7.504;2022-09-03T12:14:53;27.10;80.00
5415;DHT22;2730;51.512;7.504;2022-09-03T12:17:29;27.10;80.40
5415;DHT22;2730;51.512;7.504;2022-09-03T12:19:58;27.10;81.40
5415;DHT22;2730;51.512;7.504;2022-09-03T12:22:28;27.20;80.80
5415;DHT22;2730;51.512;7.504;2022-09-03T12:25:06;27.40;80.60
5415;DHT22;2730;51.512;7.504;2022-09-03T12:27:35;27.40;79.80
5415;DHT22;2730;51.512;7.504;2022-09-03T12:30:12;27.20;79.20
5415;DHT22;2730;51.512;7.504;2022-09-03T12:32:39;27.10;79.50
5415;DHT22;2730;51.512;7.504;2022-09-03T12:35:11;26.90;80.30
5415;DHT22;2730;51.512;7.504;2022-09-03T12:37:40;26.80;81.20
5415;DHT22;2730;51.512;7.504;2022-09-03T12:40:16;26.80;80.70
5415;DHT22;2730;51.512;7.504;2022-09-03T12:42:44;26.80;81.00
5415;DHT22;2730;51.512;7.504;2022-09-03T12:45:13;26.90;80.90
5415;DHT22;2730;51.512;7.504;2022-09-03T12:47:42;26.90;80.20
5415;DHT22;2730;51.512;7.504;2022-09-03T12:50:11;26.90;80.80
5415;DHT22;2730;51.512;7.504;2022-09-03T12:52:40;27.00;80.80
5415;DHT22;2730;51.512;7.504;2022-09-03T12:58:04;26.90;80.70
5415;DHT22;2730;51.512;7.504;2022-09-03T13:00:37;26.80;82.20
5415;DHT22;2730;51.512;7.504;2022-09-03T13:03:07;26.80;81.90
5415;DHT22;2730;51.512;7.504;2022-09-03T13:05:41;26.70;81.80
5415;DHT22;2730;51.512;7.504;2022-09-03T13:08:12;26.50;81.60
5415;DHT22;2730;51.512;7.504;2022-09-03T13:10:41;26.40;82.10
5415;DHT22;2730;51.512;7.504;2022-09-03T13:13:20;26.10;82.70
5415;DHT22;2730;51.512;7.504;2022-09-03T13:16:19;26.00;83.70
5415;DHT22;2730;51.512;7.504;2022-09-03T13:18:53;26.00;83.30
5415;DHT22;2730;51.512;7.504;2022-09-03T13:21:34;26.20;83.90
5415;DHT22;2730;51.512;7.504;2022-09-03T13:24:18;26.10;83.80
5415;DHT22;2730;51.512;7.504;2022-09-03T13:26:58;26.20;84.50
5415;DHT22;2730;51.512;7.504;2022-09-03T13:29:38;26.30;84.00
5415;DHT22;2730;51.512;7.504;2022-09-03T13:32:14;26.20;84.20
5415;DHT22;2730;51.512;7.504;2022-09-03T13:34:51;25.90;84.80
5415;DHT22;2730;51.512;7.504;2022-09-03T13:37:24;25.70;85.90
5415;DHT22;2730;51.512;7.504;2022-09-03T13:39:56;25.60;86.80
5415;DHT22;2730;51.512;7.504;2022-09-03T13:42:26;25.40;87.30
5415;DHT22;2730;51.512;7.504;2022-09-03T13:45:00;25.50;87.70
5415;DHT22;2730;51.512;7.504;2022-09-03T13:47:36;25.50;88.00
5415;DHT22;2730;51.512;7.504;2022-09-03T13:50:27;25.50;88.50
5415;DHT22;2730;51.512;7.504;2022-09-03T13:52:57;25.50;88.50
5415;DHT22;2730;51.512;7.504;2022-09-03T13:55:30;25.60;88.90
5415;DHT22;2730;51.512;7.504;2022-09-03T13:58:02;25.80;88.30
5415;DHT22;2730;51.512;7.504;2022-09-03T14:00:36;25.90;88.90
5415;DHT22;2730;51.512;7.504;2022-09-03T14:03:11;26.10;88.20
5415;DHT22;2730;51.512;7.504;2022-09-03T14:05:46;26.20;88.80
5415;DHT22;2730;51.512;7.504;2022-09-03T14:08:22;26.20;88.00
5415;DHT22;2730;51.512;7.504;2022-09-03T14:10:59;26.00;88.60
5415;DHT22;2730;51.512;7.504;2022-09-03T14:13:37;26.10;89.00
5415;DHT22;2730;51.512;7.504;2022-09-03T14:16:07;26.10;89.60
5415;DHT22;2730;51.512;7.504;2022-09-03T14:18:43;26.10;89.30
5415;DHT22;2730;51.512;7.504;2022-09-03T14:21:16;26.00;89.30
5415;DHT22;2730;51.512;7.504;2022-09-03T14:23:50;26.00;88.70
5415;DHT22;2730;51.512;7.504;2022-09-03T14:26:23;26.00;89.00
5415;DHT22;2730;51.512;7.504;2022-09-03T14:28:57;25.90;89.40
5415;DHT22;2730;51.512;7.504;2022-09-03T14:31:35;25.90;89.30
5415;DHT22;2730;51.512;7.504;2022-09-03T14:34:12;25.90;89.70
5415;DHT22;2730;51.512;7.504;2022-09-03T14:36:46;26.00;89.30
5415;DHT22;2730;51.512;7.504;2022-09-03T14:39:27;26.10;89.50
5415;DHT22;2730;51.512;7.504;2022-09-03T14:42:29;26.20;89.50
5415;DHT22;2730;51.512;7.504;2022-09-03T14:45:14;26.20;88.60
5415;DHT22;2730;51.512;7.504;2022-09-03T14:47:58;26.20;88.80
5415;DHT22;2730;51.512;7.504;2022-09-03T14:50:39;26.20;89.20
5415;DHT22;2730;51.512;7.504;2022-09-03T14:53:18;26.10;88.90
5415;DHT22;2730;51.512;7.504;2022-09-03T14:58:58;26.10;88.80
5415;DHT22;2730;51.512;7.504;2022-09-03T15:01:28;26.10;88.70
5415;DHT22;2730;51.512;7.504;2022-09-03T15:04:12;26.10;89.40
5415;DHT22;2730;51.512;7.504;2022-09-03T15:06:56;26.10;88.80
5415;DHT22;2730;51.512;7.504;2022-09-03T15:09:31;26.00;89.10
5415;DHT22;2730;51.512;7.504;2022-09-03T15:12:04;26.00;90.00
5415;DHT22;2730;51.512;7.504;2022-09-03T15:14:38;25.90;89.90
5415;DHT22;2730;51.512;7.504;2022-09-03T15:17:24;25.90;89.90
5415;DHT22;2730;51.512;7.504;2022-09-03T15:20:00;25.80;89.90
5415;DHT22;2730;51.512;7.504;2022-09-03T15:22:45;25.80;90.20
5415;DHT22;2730;51.512;7.504;2022-09-03T15:25:27;25.90;90.30
5415;DHT22;2730;51.512;7.504;2022-09-03T15:28:06;25.90;90.20
5415;DHT22;2730;51.512;7.504;2022-09-03T15:30:42;26.00;90.30
5415;DHT22;2730;51.512;7.504;2022-09-03T15:33:18;25.90;90.00
5415;DHT22;2730;51.512;7.504;2022-09-03T15:35:59;25.80;90.30
5415;DHT22;2730;51.512;7.504;2022-09-03T15:38:39;25.70;90.70
5415;DHT22;2730;51.512;7.504;2022-09-03T15:41:16;25.70;91.20
5415;DHT22;2730;51.512;7.504;2022-09-03T15:43:48;25.60;90.70
5415;DHT22;2730;51.512;7.504;2022-09-03T15:46:36;25.60;90.80
5415;DHT22;2730;51.512;7.504;2022-09-03T15:49:09;25.50;91.20
5415;DHT22;2730;51.512;7.504;2022-09-03T15:51:50;25.40;90.60
5415;DHT22;2730;51.512;7.504;2022-09-03T15:54:30;25.40;90.80
5415;DHT22;2730;51.512;7.504;2022-09-03T15:57:04;25.20;91.20
5415;DHT22;2730;51.512;7.504;2022-09-03T15:59:39;25.20;90.80
5415;DHT22;2730;51.512;7.504;2022-09-03T16:02:09;25.20;91.00
5415;DHT22;2730;51.512;7.504;2022-09-03T16:04:52;25.10;91.20
5415;DHT22;2730;51.512;7.504;2022-09-03T16:07:26;25.10;91.60
5415;DHT22;2730;51.512;7.504;2022-09-03T16:10:06;25.00;91.20
5415;DHT22;2730;51.512;7.504;2022-09-03T16:12:37;25.00;91.30
5415;DHT22;2730;51.512;7.504;2022-09-03T16:15:10;25.00;91.40
5415;DHT22;2730;51.512;7.504;2022-09-03T16:17:50;24.80;91.50
5415;DHT22;2730;51.512;7.504;2022-09-03T16:20:21;24.60;91.60
5415;DHT22;2730;51.512;7.504;2022-09-03T16:22:55;24.50;91.60
5415;DHT22;2730;51.512;7.504;2022-09-03T16:25:28;24.60;91.70
5415;DHT22;2730;51.512;7.504;2022-09-03T16:28:01;24.50;91.80
5415;DHT22;2730;51.512;7.504;2022-09-03T16:30:42;24.50;91.90
5415;DHT22;2730;51.512;7.504;2022-09-03T16:33:17;24.50;92.00
5415;DHT22;2730;51.512;7.504;2022-09-03T16:35:58;24.40;92.10
5415;DHT22;2730;51.512;7.504;2022-09-03T16:38:33;24.40;92.10
5415;DHT22;2730;51.512;7.504;2022-09-03T16:41:14;24.50;92.10
5415;DHT22;2730;51.512;7.504;2022-09-03T16:43:45;24.50;92.00
5415;DHT22;2730;51.512;7.504;2022-09-03T16:46:24;24.40;92.10
5415;DHT22;2730;51.512;7.504;2022-09-03T16:49:14;24.40;91.90
5415;DHT22;2730;51.512;7.504;2022-09-03T16:51:53;24.40;92.10
5415;DHT22;2730;51.512;7.504;2022-09-03T16:54:33;24.30;92.30
5415;DHT22;2730;51.512;7.504;2022-09-03T16:57:15;24.30;92.30
5415;DHT22;2730;51.512;7.504;2022-09-03T17:00:00;24.30;92.50
5415;DHT22;2730;51.512;7.504;2022-09-03T17:02:51;24.20;92.50
5415;DHT22;2730;51.512;7.504;2022-09-03T17:05:35;24.00;92.60
5415;DHT22;2730;51.512;7.504;2022-09-03T17:08:12;24.10;92.70
5415;DHT22;2730;51.512;7.504;2022-09-03T17:10:47;24.00;92.80
5415;DHT22;2730;51.512;7.504;2022-09-03T17:16:34;23.90;92.80
5415;DHT22;2730;51.512;7.504;2022-09-03T17:19:05;23.90;92.70
5415;DHT22;2730;51.512;7.504;2022-09-03T17:21:42;23.80;92.90
5415;DHT22;2730;51.512;7.504;2022-09-03T17:24:34;23.70;92.80
5415;DHT22;2730;51.512;7.504;2022-09-03T17:27:15;23.70;92.60
5415;DHT22;2730;51.512;7.504;2022-09-03T17:30:03;23.50;92.50
5415;DHT22;2730;51.512;7.504;2022-09-03T17:32:44;23.50;92.30
5415;DHT22;2730;51.512;7.504;2022-09-03T17:35:16;23.40;92.40
5415;DHT22;2730;51.512;7.504;2022-09-03T17:37:53;23.30;92.40
5415;DHT22;2730;51.512;7.504;2022-09-03T17:40:27;23.10;92.30
5415;DHT22;2730;51.512;7.504;2022-09-03T17:43:05;23.00;92.40
5415;DHT22;2730;51.512;7.504;2022-09-03T17:45:45;22.90;92.60
5415;DHT22;2730;51.512;7.504;2022-09-03T17:48:21;22.80;92.50
5415;DHT22;2730;51.512;7.504;2022-09-03T17:50:53;22.60;92.70
5415;DHT22;2730;51.512;7.504;2022-09-03T17:53:27;22.60;92.70
5415;DHT22;2730;51.512;7.504;2022-09-03T17:55:59;22.50;93.00
5415;DHT22;2730;51.512;7.504;2022-09-03T17:58:30;22.40;92.90
5415;DHT22;2730;51.512;7.504;2022-09-03T18:01:03;22.40;93.00
5415;DHT22;2730;51.512;7.504;2022-09-03T18:03:40;22.30;93.10
5415;DHT22;2730;51.512;7.504;2022-09-03T18:06:17;22.30;93.10
5415;DHT22;2730;51.512;7.504;2022-09-03T18:08:56;22.30;92.90
5415;DHT22;2730;51.512;7.504;2022-09-03T18:11:33;22.30;93.00
5415;DHT22;2730;51.512;7.504;2022-09-03T18:14:15;22.20;93.20
5415;DHT22;2730;51.512;7.504;2022-09-03T18:16:48;22.10;93.10
5415;DHT22;2730;51.512;7.504;2022-09-03T18:19:27;22.10;93.30
5415;DHT22;2730;51.512;7.504;2022-09-03T18:21:55;22.10;93.50
5415;DHT22;2730;51.512;7.504;2022-09-03T18:24:43;21.90;93.60
5415;DHT22;2730;51.512;7.504;2022-09-03T18:27:35;21.90;93.70
5415;DHT22;2730;51.512;7.504;2022-09-03T18:30:22;21.80;93.70
5415;DHT22;2730;51.512;7.504;2022-09-03T18:33:08;21.80;94.00
5415;DHT22;2730;51.512;7.504;2022-09-03T18:35:53;21.80;94.10
5415;DHT22;2730;51.512;7.504;2022-09-03T18:38:38;21.80;94.30
5415;DHT22;2730;51.512;7.504;2022-09-03T18:41:43;21.80;94.30
5415;DHT22;2730;51.512;7.504;2022-09-03T18:44:41;21.80;94.50
5415;DHT22;2730;51.512;7.504;2022-09-03T18:47:38;21.80;94.70
5415;DHT22;2730;51.512;7.504;2022-09-03T18:50:34;21.70;94.90
5415;DHT22;2730;51.512;7.504;2022-09-03T18:53:27;21.70;95.30
5415;DHT22;2730;51.512;7.504;2022-09-03T18:56:25;21.70;95.30
5415;DHT22;2730;51.512;7.504;2022-09-03T18:59:19;21.70;95.40
5415;DHT22;2730;51.512;7.504;2022-09-03T19:05:16;21.70;95.90
5415;DHT22;2730;51.512;7.504;2022-09-03T19:08:07;21.70;96.10
5415;DHT22;2730;51.512;7.504;2022-09-03T19:11:02;21.70;96.40
5415;DHT22;2730;51.512;7.504;2022-09-03T19:13:50;21.70;96.60
5415;DHT22;2730;51.512;7.504;2022-09-03T19:16:42;21.70;97.10
5415;DHT22;2730;51.512;7.504;2022-09-03T19:19:43;21.70;97.00
5415;DHT22;2730;51.512;7.504;2022-09-03T19:22:33;21.60;97.30
5415;DHT22;2730;51.512;7.504;2022-09-03T19:25:20;21.50;97.50
5415;DHT22;2730;51.512;7.504;2022-09-03T19:28:14;21.40;97.90
5415;DHT22;2730;51.512;7.504;2022-09-03T19:31:23;21.30;98.20
5415;DHT22;2730;51.512;7.504;2022-09-03T19:34:20;21.30;98.60
5415;DHT22;2730;51.512;7.504;2022-09-03T19:39:59;21.20;98.90
5415;DHT22;2730;51.512;7.504;2022-09-03T19:42:53;21.20;99.20
5415;DHT22;2730;51.512;7.504;2022-09-03T19:45:51;21.30;99.20
5415;DHT22;2730;51.512;7.504;2022-09-03T19:48:48;21.20;99.40
5415;DHT22;2730;51.512;7.504;2022-09-03T19:51:42;21.20;99.70
5415;DHT22;2730;51.512;7.504;2022-09-03T19:54:34;21.10;99.90
5415;DHT22;2730;51.512;7.504;2022-09-03T19:57:20;21.00;99.90
5415;DHT22;2730;51.512;7.504;2022-09-03T20:00:08;20.80;99.90
5415;DHT22;2730;51.512;7.504;2022-09-03T20:02:54;20.70;99.90
5415;DHT22;2730;51.512;7.504;2022-09-03T20:05:38;20.70;99.90
5415;DHT22;2730;51.512;7.504;2022-09-03T20:08:22;20.50;99.90
5415;DHT22;2730;51.512;7.504;2022-09-03T20:11:15;20.50;99.90
5415;DHT22;2730;51.512;7.504;2022-09-03T20:13:42;20.40;99.90
5415;DHT22;2730;51.512;7.504;2022-09-03T20:16:31;20.40;99.90
5415;DHT22;2730;51.512;7.504;2022-09-03T20:19:08;20.30;99.90
5415;DHT22;2730;51.512;7.504;2022-09-03T20:21:41;20.20;99.90
5415;DHT22;2730;51.512;7.504;2022-09-03T20:24:20;20.20;99.90
5415;DHT22;2730;51.512;7.504;2022-09-03T20:27:00;20.10;99.90
5415;DHT22;2730;51.512;7.504;2022-09-03T20:29:45;20.00;99.90
5415;DHT22;2730;51.512;7.504;2022-09-03T20:32:25;19.90;99.90
5415;DHT22;2730;51.512;7.504;2022-09-03T20:35:01;19.90;99.90
5415;DHT22;2730;51.512;7.504;2022-09-03T20:37:37;19.80;99.90
5415;DHT22;2730;51.512;7.504;2022-09-03T20:40:15;19.80;99.90
5415;DHT22;2730;51.512;7.504;2022-09-03T20:43:14;19.80;99.90
5415;DHT22;2730;51.512;7.504;2022-09-03T20:45:57;19.70;99.90
5415;DHT22;2730;51.512;7.504;2022-09-03T20:48:34;19.60;99.90
5415;DHT22;2730;51.512;7.504;2022-09-03T20:51:09;19.60;99.90
5415;DHT22;2730;51.512;7.504;2022-09-03T20:54:02;19.50;99.90
5415;DHT22;2730;51.512;7.504;2022-09-03T20:56:44;19.40;99.90
5415;DHT22;2730;51.512;7.504;2022-09-03T20:59:22;19.40;99.90
5415;DHT22;2730;51.512;7.504;2022-09-03T21:01:57;19.30;99.90
5415;DHT22;2730;51.512;7.504;2022-09-03T21:04:36;19.30;99.90
5415;DHT22;2730;51.512;7.504;2022-09-03T21:07:13;19.20;99.90
5415;DHT22;2730;51.512;7.504;2022-09-03T21:09:49;19.10;99.90
5415;DHT22;2730;51.512;7.504;2022-09-03T21:12:25;19.00;99.90
5415;DHT22;2730;51.512;7.504;2022-09-03T21:15:02;18.90;99.90
5415;DHT22;2730;51.512;7.504;2022-09-03T21:17:40;18.90;99.90
5415;DHT22;2730;51.512;7.504;2022-09-03T21:20:20;18.80;99.90
5415;DHT22;2730;51.512;7.504;2022-09-03T21:23:01;18.80;99.90
5415;DHT22;2730;51.512;7.504;2022-09-03T21:25:36;18.70;99.90
5415;DHT22;2730;51.512;7.504;2022-09-03T21:28:08;18.70;99.90
5415;DHT22;2730;51.512;7.504;2022-09-03T21:30:39;18.70;99.90
5415;DHT22;2730;51.512;7.504;2022-09-03T21:33:11;18.70;99.90
5415;DHT22;2730;51.512;7.504;2022-09-03T21:35:45;18.70;99.90
5415;DHT22;2730;51.512;7.504;2022-09-03T21:38:16;18.60;99.90
5415;DHT22;2730;51.512;7.504;2022-09-03T21:40:48;18.50;99.90
5415;DHT22;2730;51.512;7.504;2022-09-03T21:43:20;18.50;99.90
5415;DHT22;2730;51.512;7.504;2022-09-03T21:45:54;18.50;99.90
5415;DHT22;2730;51.512;7.504;2022-09-03T21:48:27;18.50;99.90
5415;DHT22;2730;51.512;7.504;2022-09-03T21:51:04;18.50;99.90
5415;DHT22;2730;51.512;7.504;2022-09-03T21:53:36;18.40;99.90
5415;DHT22;2730;51.512;7.504;2022-09-03T21:56:19;18.40;99.90
5415;DHT22;2730;51.512;7.504;2022-09-03T21:59:02;18.40;99.90
5415;DHT22;2730;51.512;7.504;2022-09-03T22:01:35;18.30;99.90
5415;DHT22;2730;51.512;7.504;2022-09-03T22:04:03;18.30;99.90
5415;DHT22;2730;51.512;7.504;2022-09-03T22:06:37;18.20;99.90
5415;DHT22;2730;51.512;7.504;2022-09-03T22:09:12;18.20;99.90
5415;DHT22;2730;51.512;7.504;2022-09-03T22:11:47;18.20;99.90
5415;DHT22;2730;51.512;7.504;2022-09-03T22:14:18;18.20;99.90
5415;DHT22;2730;51.512;7.504;2022-09-03T22:16:50;18.20;99.90